AirNav   Everest Fuels
 
 479 users online  

CO38 Comanche Airfield LLC Airport
Strasburg, Colorado, USA

GOING TO STRASBURG?


FAA INFORMATION EFFECTIVE 26 JANUARY 2023

Location

FAA Identifier: CO38
Lat/Long: 39-44-49.9000N 104-18-46.8000W
39-44.831667N 104-18.780000W
39.7471944,-104.3130000
(estimated)
Elevation: 5350 ft. / 1631 m (estimated)
Variation: 10E (1995)
From city: 1 mile E of STRASBURG, CO
Time zone: UTC -7 (UTC -6 during Daylight Saving Time)
Zip code: 80136

Airport Operations

Airport use: Private use. Permission required prior to landing
Activation date: 03/2000
Control tower: no
ARTCC: DENVER CENTER
FSS: DENVER FLIGHT SERVICE STATION
Attendance: UNATNDD
Wind indicator: yes
Segmented circle: no

Airport Communications

WX AWOS-3 at CFO (11 nm W): 119.025 (303-261-9104)
WX ASOS at DEN (18 nm W): PHONE 303-342-1920

Nearby radio navigation aids

VOR radial/distance  VOR name  Freq  Var
FQFr065/14.6FALCON VORTAC116.3011E
DENr096/16.5DENVER VOR/DME117.9008E
DVVr114/16.9MILE HIGH VORTAC114.7008E
BJCr094/39.3JEFFCO VOR/DME115.4011E

Airport Services

Runway Information

Runway 17/35

Dimensions: 3000 x 80 ft. / 914 x 24 m
Surface: dirt
RUNWAY 17  RUNWAY 35
Traffic pattern: leftleft
Obstructions: none35 ft. pline, 1700 ft. from runway

Airport Ownership and Management from official FAA records

Ownership: Privately-owned
Owner: COMANCHE AIRFIELD LLC
P.O. BOX 448
STRASBURG, CO 80136
Phone 303-622-9654
Manager: DAN CRAIG DUNNING
2555 PIGGOTT ROAD
STRASBURG, CO 80136
Phone 720-810-1172

Airport Operational Statistics

Aircraft based on the field: 11
Single engine airplanes: 8
Multi engine airplanes: 1
Ultralights: 2
    

Additional Remarks

FOR CD CTC DENVER APCH AT 303-342-1916.

Instrument Procedures

There are no published instrument procedures at CO38.

Some nearby airports with instrument procedures:

KCFO - Colorado Air and Space Port Airport (11 nm W)
KDEN - Denver International Airport (18 nm NW)
KBKF - Buckley Space Force Base (20 nm W)
KAPA - Centennial Airport (27 nm SW)
KEIK - Erie Municipal Airport (37 nm NW)
 
Loc | Ops | Rwys | IFR | FBO | Links
Com | Nav | Svcs | Stats | Notes

AirBoss

 
Area around CO38 (Comanche Airfield LLC Airport)
 
Road maps at: MapQuest Bing Google
 
Aerial photo
No photo
 
Sectional chart

 
Airport distance calculator
Flying to Comanche Airfield LLC Airport? Find the distance to fly.

From to CO38

Sunrise and sunset
Times for 04-Feb-2023
 Local
(UTC-7)
 Zulu
(UTC)
Morning civil twilight06:3513:35
Sunrise07:0314:03
Sunset17:1900:19
Evening civil twilight17:4700:47

Current date and time
Zulu (UTC)  04-Feb-2023 08:44:31
Local (UTC-7)  04-Feb-2023 01:44:31
 
METAR
KCFO 
11nm W 
040835Z AUTO 22012KT 10SM CLR 04/M11 A3004 RMK AO2 T00381111
KDEN 
16nm W 
040753Z 21011KT 10SM BKN220 02/M09 A3004 RMK AO2 SLP163 T00221089
KBKF 
20nm W 
040758Z 18008KT 10SM FEW130 BKN220 02/M10 A3004 RMK AO2A SLP156 T00171105
TAF
KDEN 
16nm W 
040534Z 0406/0512 21011KT P6SM SCT100 BKN200 FM041600 25009KT P6SM FEW100 BKN200 FM050200 20010KT P6SM FEW100 BKN200
KBKF 
20nm W 
040100Z 0401/0507 VRB06KT 9999 SKC 510013 QNH3006INS BECMG 0415/0416 VRB06KT 9999 FEW150 FEW210 SCT280 530054 QNH3007INS TX04/0422Z TNM02/0502Z
NOTAMs
Click for the latest NOTAMs
NOTAMs are issued by the DoD/FAA and will open in a separate window not controlled by AirNav.

 

 
 

Would you like to see your business listed on this page?

 If your business provides an interesting product or service to pilots, flight crews, aircraft, or users of the Comanche Airfield LLC Airport, you should consider listing it here.  To start the listing process, click on the button below
 
Add a business
 

Other Pages about Comanche Airfield LLC Airport

Update a link
 
Copyright © AirNav, LLC. All rights reserved. Privacy Policy  Contact